Time;durP1;ratioP1;P1;durP2;ratioP2;P2;SDS_P1;SDS_P2;PMS_P1;PMS_P2;Temp;Humidity;BMP_temperature;BMP_pressure;BME280_temperature;BME280_humidity;BME280_pressure;Samples;Min_cycle;Max_cycle;Signal;HPM_P1;HPM_P2
2021/09/20 00:00:11;;;;;;;;;;;17.70;66.50;;;;;;5024320;28;83103;-47
2021/09/20 00:02:37;;;;;;;;;;;17.70;67.00;;;;;;5021637;28;83020;-47
2021/09/20 00:05:03;;;;;;;;;;;17.70;66.50;;;;;;5021646;28;83096;-48
2021/09/20 00:07:28;;;;;;;;;;;17.70;66.70;;;;;;5021219;28;84601;-47
2021/09/20 00:09:54;;;;;;;;;;;17.60;66.70;;;;;;5022329;28;82104;-48
2021/09/20 00:12:19;;;;;;;;;;;17.60;66.60;;;;;;5023657;28;82286;-49
2021/09/20 00:14:45;;;;;;;;;;;17.60;66.70;;;;;;5027327;28;82549;-49
2021/09/20 00:17:11;;;;;;;;;;;17.60;66.30;;;;;;5026103;28;82521;-54
2021/09/20 00:19:36;;;;;;;;;;;17.60;66.40;;;;;;5023598;28;83510;-49
2021/09/20 00:22:02;;;;;;;;;;;17.60;66.30;;;;;;5022115;28;81458;-49
2021/09/20 00:24:27;;;;;;;;;;;17.60;66.60;;;;;;5021487;28;82176;-53
2021/09/20 00:26:53;;;;;;;;;;;17.60;66.30;;;;;;5022018;28;82114;-48
2021/09/20 00:29:19;;;;;;;;;;;17.60;66.50;;;;;;5022499;28;83041;-48
2021/09/20 00:31:44;;;;;;;;;;;17.60;66.70;;;;;;5024405;28;83658;-48
2021/09/20 00:34:10;;;;;;;;;;;17.60;66.60;;;;;;5025312;28;82820;-49
2021/09/20 00:36:35;;;;;;;;;;;17.60;66.50;;;;;;5026373;28;83956;-48
2021/09/20 00:39:01;;;;;;;;;;;17.60;66.80;;;;;;5020929;28;84851;-51
2021/09/20 00:41:27;;;;;;;;;;;17.50;66.70;;;;;;5022435;28;82270;-52
2021/09/20 00:43:52;;;;;;;;;;;17.50;66.50;;;;;;5023269;28;82330;-52
2021/09/20 00:46:18;;;;;;;;;;;17.60;66.50;;;;;;5024884;28;82105;-52
2021/09/20 00:48:43;;;;;;;;;;;17.50;66.20;;;;;;5025600;28;82117;-48
2021/09/20 00:51:09;;;;;;;;;;;17.50;66.30;;;;;;5022658;28;83220;-49
2021/09/20 00:53:34;;;;;;;;;;;17.50;66.40;;;;;;5020408;28;84732;-48
2021/09/20 00:56:00;;;;;;;;;;;17.50;66.30;;;;;;5022443;28;82105;-52
2021/09/20 00:58:26;;;;;;;;;;;17.50;66.60;;;;;;5025564;28;84319;-48
2021/09/20 01:00:52;;;;;;;;;;;17.50;66.20;;;;;;5024255;28;82149;-53
2021/09/20 01:03:17;;;;;;;;;;;17.50;66.40;;;;;;5025032;28;82120;-51
2021/09/20 01:05:43;;;;;;;;;;;17.50;66.30;;;;;;5023295;28;84590;-53
2021/09/20 01:08:08;;;;;;;;;;;17.50;66.20;;;;;;5021003;28;83150;-47
2021/09/20 01:10:34;;;;;;;;;;;17.50;66.50;;;;;;5022017;28;82611;-47
2021/09/20 01:13:00;;;;;;;;;;;17.50;66.60;;;;;;5022430;28;82635;-47
2021/09/20 01:15:25;;;;;;;;;;;17.40;66.40;;;;;;5023648;28;82117;-48
2021/09/20 01:17:51;;;;;;;;;;;17.50;66.20;;;;;;5026583;28;83311;-49
2021/09/20 01:20:16;;;;;;;;;;;17.40;66.40;;;;;;5022159;28;82119;-48
2021/09/20 01:22:42;;;;;;;;;;;17.40;66.60;;;;;;5020318;28;84263;-47
2021/09/20 01:25:08;;;;;;;;;;;17.40;66.40;;;;;;5020965;28;84597;-47
2021/09/20 01:27:34;;;;;;;;;;;17.40;66.40;;;;;;5021104;28;82101;-51
2021/09/20 01:29:59;;;;;;;;;;;17.40;66.40;;;;;;5021244;28;82765;-48
2021/09/20 01:32:25;;;;;;;;;;;17.40;66.40;;;;;;5022194;28;82757;-53
2021/09/20 01:34:51;;;;;;;;;;;17.40;66.20;;;;;;5023401;28;81256;-47
2021/09/20 01:37:16;;;;;;;;;;;17.40;66.40;;;;;;5023367;28;82096;-47
2021/09/20 01:39:42;;;;;;;;;;;17.40;66.10;;;;;;5026732;28;83051;-48
2021/09/20 01:42:08;;;;;;;;;;;17.40;66.10;;;;;;5023103;28;83944;-48
2021/09/20 01:44:33;;;;;;;;;;;17.40;66.00;;;;;;5020761;28;83155;-47
2021/09/20 01:47:00;;;;;;;;;;;17.40;66.00;;;;;;5020234;28;82155;-48
2021/09/20 01:49:26;;;;;;;;;;;17.40;66.80;;;;;;5020786;28;83659;-52
2021/09/20 01:51:51;;;;;;;;;;;17.40;66.10;;;;;;5020844;28;83197;-50
2021/09/20 01:54:17;;;;;;;;;;;17.40;66.30;;;;;;5022298;28;82215;-48
2021/09/20 01:56:43;;;;;;;;;;;17.30;66.30;;;;;;5022786;28;84482;-48
2021/09/20 01:59:08;;;;;;;;;;;17.30;66.30;;;;;;5024575;28;82164;-50
2021/09/20 02:01:34;;;;;;;;;;;17.30;66.40;;;;;;5026089;28;83867;-51
2021/09/20 02:04:00;;;;;;;;;;;17.30;66.20;;;;;;5021355;28;83093;-52
2021/09/20 02:06:25;;;;;;;;;;;17.30;66.10;;;;;;5019594;28;83092;-48
2021/09/20 02:08:54;;;;;;;;;;;17.30;66.00;;;;;;5021332;28;83387;-47
2021/09/20 02:11:21;;;;;;;;;;;17.30;65.90;;;;;;5021067;28;83663;-50
2021/09/20 02:13:46;;;;;;;;;;;17.30;66.00;;;;;;5024540;28;82063;-51
2021/09/20 02:16:12;;;;;;;;;;;17.30;66.10;;;;;;5022839;28;83032;-51
2021/09/20 02:18:39;;;;;;;;;;;17.30;66.10;;;;;;5019605;28;82877;-47
2021/09/20 02:21:05;;;;;;;;;;;17.30;66.20;;;;;;5021697;28;83067;-47
2021/09/20 02:23:30;;;;;;;;;;;17.30;66.10;;;;;;5022807;28;81886;-48
2021/09/20 02:25:56;;;;;;;;;;;17.20;66.20;;;;;;5020416;28;82249;-49
2021/09/20 02:28:21;;;;;;;;;;;17.20;66.10;;;;;;5021775;28;82574;-48
2021/09/20 02:30:47;;;;;;;;;;;17.20;66.20;;;;;;5021939;28;83748;-48
2021/09/20 02:33:12;;;;;;;;;;;17.20;66.00;;;;;;5022954;28;82144;-48
2021/09/20 02:35:38;;;;;;;;;;;17.20;65.80;;;;;;5023342;28;83748;-49
2021/09/20 02:38:03;;;;;;;;;;;17.20;66.10;;;;;;5021091;28;83500;-47
2021/09/20 02:40:29;;;;;;;;;;;17.20;66.00;;;;;;5019523;28;82126;-49
2021/09/20 02:42:54;;;;;;;;;;;17.20;65.80;;;;;;5020644;28;82108;-49
2021/09/20 02:45:20;;;;;;;;;;;17.20;65.90;;;;;;5024433;28;83671;-48
2021/09/20 02:47:46;;;;;;;;;;;17.10;65.90;;;;;;5023551;28;82366;-48
2021/09/20 02:50:12;;;;;;;;;;;17.20;65.90;;;;;;5022822;28;84663;-48
2021/09/20 02:52:38;;;;;;;;;;;17.10;65.90;;;;;;5022236;28;82845;-50
2021/09/20 02:55:05;;;;;;;;;;;17.10;66.10;;;;;;5020679;28;83861;-49
2021/09/20 02:57:31;;;;;;;;;;;17.10;66.00;;;;;;5023413;28;85018;-49
2021/09/20 02:59:56;;;;;;;;;;;17.10;66.60;;;;;;5020916;28;83758;-47
2021/09/20 03:02:22;;;;;;;;;;;17.10;66.10;;;;;;5019559;28;82361;-47
2021/09/20 03:04:47;;;;;;;;;;;17.10;66.00;;;;;;5020586;28;83225;-48
2021/09/20 03:07:13;;;;;;;;;;;17.10;66.00;;;;;;5024164;28;82183;-48
2021/09/20 03:09:38;;;;;;;;;;;17.00;66.30;;;;;;5021551;28;84852;-47
2021/09/20 03:12:04;;;;;;;;;;;17.10;66.20;;;;;;5023649;28;81399;-49
2021/09/20 03:14:29;;;;;;;;;;;17.00;66.30;;;;;;5022546;28;83794;-49
2021/09/20 03:16:55;;;;;;;;;;;17.00;66.00;;;;;;5019191;28;83951;-48
2021/09/20 03:19:21;;;;;;;;;;;17.00;66.10;;;;;;5019132;28;82991;-52
2021/09/20 03:21:46;;;;;;;;;;;17.10;66.00;;;;;;5020638;28;85165;-53
2021/09/20 03:24:13;;;;;;;;;;;17.00;65.80;;;;;;5021711;28;83212;-51
2021/09/20 03:26:39;;;;;;;;;;;17.00;65.80;;;;;;5024606;28;82101;-51
2021/09/20 03:29:04;;;;;;;;;;;17.00;66.00;;;;;;5022030;28;82938;-52
2021/09/20 03:31:30;;;;;;;;;;;17.00;65.80;;;;;;5023450;28;82109;-51
2021/09/20 03:33:55;;;;;;;;;;;17.00;65.90;;;;;;5020414;28;83228;-48
2021/09/20 03:36:21;;;;;;;;;;;17.00;65.80;;;;;;5019144;28;83879;-47
2021/09/20 03:38:47;;;;;;;;;;;17.00;66.00;;;;;;5020112;28;82092;-49
2021/09/20 03:41:13;;;;;;;;;;;17.00;66.00;;;;;;5021121;28;82166;-51
2021/09/20 03:43:38;;;;;;;;;;;17.00;65.90;;;;;;5024134;28;84183;-47
2021/09/20 03:46:04;;;;;;;;;;;16.90;65.90;;;;;;5026479;28;82211;-50
2021/09/20 03:48:30;;;;;;;;;;;17.00;66.00;;;;;;5028197;28;82327;-47
2021/09/20 03:50:55;;;;;;;;;;;16.90;66.00;;;;;;5022628;28;83712;-48
2021/09/20 03:53:21;;;;;;;;;;;16.90;65.90;;;;;;5022661;28;82578;-49
2021/09/20 03:55:46;;;;;;;;;;;16.90;65.90;;;;;;5023610;28;82084;-49
2021/09/20 03:58:12;;;;;;;;;;;17.00;65.90;;;;;;5025197;28;82116;-48
2021/09/20 04:00:37;;;;;;;;;;;16.90;65.90;;;;;;5026598;28;82871;-49
2021/09/20 04:03:03;;;;;;;;;;;16.90;65.80;;;;;;5024159;28;83903;-47
2021/09/20 04:05:28;;;;;;;;;;;16.90;66.00;;;;;;5021584;28;82089;-47
2021/09/20 04:07:54;;;;;;;;;;;16.90;65.90;;;;;;5020995;28;83023;-48
2021/09/20 04:10:20;;;;;;;;;;;16.90;65.80;;;;;;5025167;28;83215;-48
2021/09/20 04:12:45;;;;;;;;;;;16.90;66.20;;;;;;5023646;28;83720;-51
2021/09/20 04:15:11;;;;;;;;;;;16.90;65.90;;;;;;5024788;28;82841;-49
2021/09/20 04:17:37;;;;;;;;;;;16.80;65.90;;;;;;5026007;28;82115;-49
2021/09/20 04:20:03;;;;;;;;;;;16.90;66.10;;;;;;5024167;28;83243;-47
2021/09/20 04:22:29;;;;;;;;;;;16.90;66.10;;;;;;5025778;28;84774;-50
2021/09/20 04:24:55;;;;;;;;;;;16.80;65.80;;;;;;5026603;28;83035;-47
2021/09/20 04:27:20;;;;;;;;;;;16.80;66.00;;;;;;5022846;28;83031;-48
2021/09/20 04:29:46;;;;;;;;;;;16.80;65.90;;;;;;5021337;28;82346;-47
2021/09/20 04:32:12;;;;;;;;;;;16.80;66.20;;;;;;5024451;28;83116;-49
2021/09/20 04:34:37;;;;;;;;;;;16.80;66.00;;;;;;5023033;28;82786;-47
2021/09/20 04:37:03;;;;;;;;;;;16.80;66.30;;;;;;5024507;28;82204;-48
2021/09/20 04:39:28;;;;;;;;;;;16.80;66.20;;;;;;5025859;28;83061;-49
2021/09/20 04:41:54;;;;;;;;;;;16.80;66.10;;;;;;5022801;28;82926;-51
2021/09/20 04:44:19;;;;;;;;;;;16.80;66.10;;;;;;5022260;28;83783;-51
2021/09/20 04:46:45;;;;;;;;;;;16.80;66.10;;;;;;5021227;28;84009;-52
2021/09/20 04:49:10;;;;;;;;;;;16.80;66.30;;;;;;5022558;28;83694;-49
2021/09/20 04:51:36;;;;;;;;;;;16.80;66.00;;;;;;5021787;28;82116;-50
2021/09/20 04:54:02;;;;;;;;;;;16.70;66.00;;;;;;5023736;28;82543;-50
2021/09/20 04:56:27;;;;;;;;;;;16.80;66.10;;;;;;5020776;28;84707;-52
2021/09/20 04:58:53;;;;;;;;;;;16.70;66.10;;;;;;5024444;28;85170;-48
2021/09/20 05:01:18;;;;;;;;;;;16.70;66.00;;;;;;5022194;28;83485;-51
2021/09/20 05:03:44;;;;;;;;;;;16.70;66.10;;;;;;5021151;28;82134;-48
2021/09/20 05:06:09;;;;;;;;;;;16.70;66.20;;;;;;5022357;28;83924;-49
2021/09/20 05:08:35;;;;;;;;;;;16.70;66.30;;;;;;5023480;28;82770;-48
2021/09/20 05:11:00;;;;;;;;;;;16.70;66.40;;;;;;5023850;28;82168;-48
2021/09/20 05:13:26;;;;;;;;;;;16.70;66.40;;;;;;5027838;28;81924;-47
2021/09/20 05:15:51;;;;;;;;;;;16.70;66.20;;;;;;5023511;28;83656;-47
2021/09/20 05:18:17;;;;;;;;;;;16.70;66.10;;;;;;5020511;28;83429;-48
2021/09/20 05:20:42;;;;;;;;;;;16.70;66.20;;;;;;5020691;28;84164;-48
2021/09/20 05:23:08;;;;;;;;;;;16.70;66.10;;;;;;5022851;28;82113;-50
2021/09/20 05:25:34;;;;;;;;;;;16.70;66.10;;;;;;5024048;28;82245;-51
2021/09/20 05:28:00;;;;;;;;;;;16.70;66.30;;;;;;5024901;28;83170;-52
2021/09/20 05:30:25;;;;;;;;;;;16.70;66.10;;;;;;5024717;28;82111;-48
2021/09/20 05:32:51;;;;;;;;;;;16.70;66.30;;;;;;5024484;28;82965;-47
2021/09/20 05:35:16;;;;;;;;;;;16.70;66.20;;;;;;5023686;28;83579;-47
2021/09/20 05:37:45;;;;;;;;;;;16.70;66.30;;;;;;5021248;28;83898;-47
2021/09/20 05:40:11;;;;;;;;;;;16.60;66.10;;;;;;5024666;28;84360;-49
2021/09/20 05:42:36;;;;;;;;;;;16.60;66.40;;;;;;5022907;28;83477;-48
2021/09/20 05:45:02;;;;;;;;;;;16.60;66.40;;;;;;5019520;28;84462;-47
2021/09/20 05:47:28;;;;;;;;;;;16.70;66.30;;;;;;5020565;28;82923;-48
2021/09/20 05:49:53;;;;;;;;;;;16.70;66.40;;;;;;5020701;28;82107;-48
2021/09/20 05:52:22;;;;;;;;;;;16.60;66.30;;;;;;5021966;28;82109;-48
2021/09/20 05:54:47;;;;;;;;;;;16.60;66.20;;;;;;5020911;28;85002;-49
2021/09/20 05:57:13;;;;;;;;;;;16.60;66.50;;;;;;5023238;28;82116;-47
2021/09/20 05:59:38;;;;;;;;;;;16.60;66.20;;;;;;5021341;28;84024;-48
2021/09/20 06:02:04;;;;;;;;;;;16.60;66.40;;;;;;5023297;28;81332;-48
2021/09/20 06:04:29;;;;;;;;;;;16.60;66.50;;;;;;5023553;28;82136;-49
2021/09/20 06:06:55;;;;;;;;;;;16.60;66.60;;;;;;5023175;28;84524;-48
2021/09/20 06:09:21;;;;;;;;;;;16.60;66.70;;;;;;5022419;28;83068;-48
2021/09/20 06:11:47;;;;;;;;;;;16.60;66.50;;;;;;5021446;28;84755;-48
2021/09/20 06:14:12;;;;;;;;;;;16.60;66.50;;;;;;5021794;28;82457;-48
2021/09/20 06:16:38;;;;;;;;;;;16.60;66.50;;;;;;5020947;28;82091;-48
2021/09/20 06:19:03;;;;;;;;;;;16.60;66.50;;;;;;5022571;28;84001;-47
2021/09/20 06:21:29;;;;;;;;;;;16.60;66.40;;;;;;5020987;28;82179;-49
2021/09/20 06:23:54;;;;;;;;;;;16.60;66.40;;;;;;5021315;28;82151;-51
2021/09/20 06:26:20;;;;;;;;;;;16.60;66.60;;;;;;5020763;28;81812;-47
2021/09/20 06:28:45;;;;;;;;;;;16.50;66.60;;;;;;5019871;28;82130;-49
2021/09/20 06:31:11;;;;;;;;;;;16.50;66.50;;;;;;5019103;28;82654;-47
2021/09/20 06:33:37;;;;;;;;;;;16.50;66.70;;;;;;5021903;28;84529;-48
2021/09/20 06:36:03;;;;;;;;;;;16.50;66.50;;;;;;5023653;28;82155;-47
2021/09/20 06:38:28;;;;;;;;;;;16.60;66.50;;;;;;5023699;28;83699;-47
2021/09/20 06:40:54;;;;;;;;;;;16.50;66.60;;;;;;5025946;28;84596;-48
2021/09/20 06:43:19;;;;;;;;;;;16.50;66.50;;;;;;5023845;28;83124;-49
2021/09/20 06:45:45;;;;;;;;;;;16.50;66.40;;;;;;5022451;28;84704;-49
2021/09/20 06:48:11;;;;;;;;;;;16.50;66.60;;;;;;5022060;28;82177;-48
2021/09/20 06:50:36;;;;;;;;;;;16.50;66.50;;;;;;5021733;28;82122;-47
2021/09/20 06:53:02;;;;;;;;;;;16.50;66.60;;;;;;5021414;28;83640;-48
2021/09/20 06:55:28;;;;;;;;;;;16.50;66.70;;;;;;5021651;28;82160;-52
2021/09/20 06:58:00;;;;;;;;;;;16.50;66.90;;;;;;5020617;28;83591;-49
2021/09/20 07:00:26;;;;;;;;;;;16.50;66.90;;;;;;5019807;28;83146;-48
2021/09/20 07:02:51;;;;;;;;;;;16.50;66.80;;;;;;5023803;28;82257;-48
2021/09/20 07:05:17;;;;;;;;;;;16.50;66.60;;;;;;5020415;28;83229;-53
2021/09/20 07:07:43;;;;;;;;;;;16.50;66.50;;;;;;5020694;28;83267;-49
2021/09/20 07:10:09;;;;;;;;;;;16.40;66.70;;;;;;5018950;28;83150;-48
2021/09/20 07:12:35;;;;;;;;;;;16.40;66.60;;;;;;5020599;28;83916;-49
2021/09/20 07:15:00;;;;;;;;;;;16.50;66.90;;;;;;5019412;28;82676;-47
2021/09/20 07:17:26;;;;;;;;;;;16.40;66.60;;;;;;5021988;28;84753;-48
2021/09/20 07:19:51;;;;;;;;;;;16.50;66.70;;;;;;5023255;28;84261;-50
2021/09/20 07:22:17;;;;;;;;;;;16.50;66.70;;;;;;5027595;28;84591;-48
2021/09/20 07:24:43;;;;;;;;;;;16.40;66.70;;;;;;5023293;28;83678;-48
2021/09/20 07:27:09;;;;;;;;;;;16.50;66.50;;;;;;5026054;28;82178;-48
2021/09/20 07:29:34;;;;;;;;;;;16.50;66.80;;;;;;5026368;28;82140;-52
2021/09/20 07:32:00;;;;;;;;;;;16.50;66.60;;;;;;5025741;28;82559;-50
2021/09/20 07:34:25;;;;;;;;;;;16.50;66.60;;;;;;5025945;28;82134;-48
2021/09/20 07:36:51;;;;;;;;;;;16.50;66.80;;;;;;5026980;28;83861;-48
2021/09/20 07:39:17;;;;;;;;;;;16.40;66.60;;;;;;5026613;28;82474;-48
2021/09/20 07:41:43;;;;;;;;;;;16.50;66.90;;;;;;5024879;28;82156;-48
2021/09/20 07:44:08;;;;;;;;;;;16.50;66.90;;;;;;5027655;28;82503;-48
2021/09/20 07:46:34;;;;;;;;;;;16.50;66.90;;;;;;5023663;28;83052;-49
2021/09/20 07:49:00;;;;;;;;;;;16.50;67.00;;;;;;5023431;28;82611;-49
2021/09/20 07:51:25;;;;;;;;;;;16.40;66.80;;;;;;5022236;28;83754;-49
2021/09/20 07:53:51;;;;;;;;;;;16.50;67.00;;;;;;5021851;28;82112;-49
2021/09/20 07:56:16;;;;;;;;;;;16.50;66.60;;;;;;5021720;28;83508;-49
2021/09/20 07:58:42;;;;;;;;;;;16.50;66.70;;;;;;5020239;28;84733;-48
2021/09/20 08:01:07;;;;;;;;;;;16.50;66.70;;;;;;5022329;28;83196;-49
2021/09/20 08:03:33;;;;;;;;;;;16.50;66.60;;;;;;5025394;28;82398;-49
2021/09/20 08:05:58;;;;;;;;;;;16.50;66.50;;;;;;5027485;28;83829;-48
2021/09/20 08:08:24;;;;;;;;;;;16.50;66.50;;;;;;5025189;28;85824;-48
2021/09/20 08:10:50;;;;;;;;;;;16.50;66.50;;;;;;5025211;28;84243;-49
2021/09/20 08:13:16;;;;;;;;;;;16.50;66.60;;;;;;5024444;28;82109;-48
2021/09/20 08:15:42;;;;;;;;;;;16.50;66.70;;;;;;5023995;28;84690;-47
2021/09/20 08:18:08;;;;;;;;;;;16.50;66.70;;;;;;5022262;28;84540;-48
2021/09/20 08:20:34;;;;;;;;;;;16.50;66.60;;;;;;5021764;28;82160;-50
2021/09/20 08:22:59;;;;;;;;;;;16.50;66.50;;;;;;5021937;28;83003;-52
2021/09/20 08:25:25;;;;;;;;;;;16.50;66.60;;;;;;5024521;28;83409;-48
2021/09/20 08:27:51;;;;;;;;;;;16.50;66.60;;;;;;5028769;28;81433;-48
2021/09/20 08:30:18;;;;;;;;;;;16.50;66.90;;;;;;5024317;28;83811;-53
2021/09/20 08:32:43;;;;;;;;;;;16.50;66.60;;;;;;5024515;28;82112;-49
2021/09/20 08:35:09;;;;;;;;;;;16.40;67.00;;;;;;5022993;28;83421;-51
2021/09/20 08:37:34;;;;;;;;;;;16.50;67.20;;;;;;5022681;28;83820;-49
2021/09/20 08:40:00;;;;;;;;;;;16.50;67.00;;;;;;5022344;28;82267;-48
2021/09/20 08:42:25;;;;;;;;;;;16.50;66.90;;;;;;5020136;28;86146;-47
2021/09/20 08:44:51;;;;;;;;;;;16.50;66.60;;;;;;5020716;28;82140;-53
2021/09/20 08:47:17;;;;;;;;;;;16.50;66.80;;;;;;5023766;28;83585;-48
2021/09/20 08:49:43;;;;;;;;;;;16.50;67.10;;;;;;5027315;28;83017;-48
2021/09/20 08:52:10;;;;;;;;;;;16.50;66.80;;;;;;5023584;28;81445;-48
2021/09/20 08:54:35;;;;;;;;;;;16.50;66.80;;;;;;5021616;28;82878;-49
2021/09/20 08:57:01;;;;;;;;;;;16.50;67.20;;;;;;5020861;28;82668;-48
2021/09/20 08:59:27;;;;;;;;;;;16.50;66.80;;;;;;5020877;28;83026;-50
2021/09/20 09:01:54;;;;;;;;;;;16.50;66.90;;;;;;5021044;28;83082;-48
2021/09/20 09:04:24;;;;;;;;;;;16.50;67.00;;;;;;5025226;28;83458;-49
2021/09/20 09:07:03;;;;;;;;;;;16.50;67.20;;;;;;5024941;28;82135;-49
2021/09/20 09:09:33;;;;;;;;;;;16.50;67.00;;;;;;5024560;28;84397;-51
2021/09/20 09:12:08;;;;;;;;;;;16.50;67.40;;;;;;5026275;28;84102;-48
2021/09/20 09:14:45;;;;;;;;;;;16.50;67.30;;;;;;5021488;28;83041;-47
2021/09/20 09:17:13;;;;;;;;;;;16.50;67.20;;;;;;5023075;28;83356;-47
2021/09/20 09:19:52;;;;;;;;;;;16.50;67.30;;;;;;5023405;28;82169;-48
2021/09/20 09:22:18;;;;;;;;;;;16.50;67.70;;;;;;5023787;28;83954;-48
2021/09/20 09:24:54;;;;;;;;;;;16.60;67.60;;;;;;5022327;28;84169;-48
2021/09/20 09:27:20;;;;;;;;;;;16.60;67.50;;;;;;5024306;28;82086;-48
2021/09/20 09:29:46;;;;;;;;;;;16.60;67.70;;;;;;5022933;28;83980;-47
2021/09/20 09:32:15;;;;;;;;;;;16.60;67.80;;;;;;5023297;28;83512;-48
2021/09/20 09:34:51;;;;;;;;;;;16.60;67.30;;;;;;5023154;28;82147;-48
2021/09/20 09:37:16;;;;;;;;;;;16.60;67.90;;;;;;5023543;28;83844;-48
2021/09/20 09:39:44;;;;;;;;;;;16.60;67.60;;;;;;5023592;28;82764;-48
2021/09/20 09:42:22;;;;;;;;;;;16.60;67.90;;;;;;5023906;28;83528;-50
2021/09/20 09:44:47;;;;;;;;;;;16.60;67.90;;;;;;5021504;28;83943;-51
2021/09/20 09:47:25;;;;;;;;;;;16.60;68.00;;;;;;5021825;28;82100;-48
2021/09/20 09:50:10;;;;;;;;;;;16.60;68.20;;;;;;5019670;28;84101;-49
2021/09/20 09:52:36;;;;;;;;;;;16.60;67.70;;;;;;5021777;28;82505;-51
2021/09/20 09:55:03;;;;;;;;;;;16.60;67.80;;;;;;5023776;28;82155;-48
2021/09/20 09:57:28;;;;;;;;;;;16.60;67.80;;;;;;5020789;28;85002;-52
2021/09/20 09:59:55;;;;;;;;;;;16.60;67.90;;;;;;5022181;28;82115;-48
2021/09/20 10:02:25;;;;;;;;;;;16.60;67.90;;;;;;5022102;28;82100;-53
2021/09/20 10:04:56;;;;;;;;;;;16.70;68.10;;;;;;5023464;28;82922;-49
2021/09/20 10:07:26;;;;;;;;;;;16.70;68.00;;;;;;5023504;28;81440;-51
2021/09/20 10:09:52;;;;;;;;;;;16.70;68.20;;;;;;5019664;28;83800;-48
2021/09/20 10:12:20;;;;;;;;;;;16.60;68.30;;;;;;5021139;28;83429;-52
2021/09/20 10:14:47;;;;;;;;;;;16.70;68.30;;;;;;5022396;28;83047;-52
2021/09/20 10:17:18;;;;;;;;;;;16.60;68.50;;;;;;5023802;28;84973;-47
2021/09/20 10:19:44;;;;;;;;;;;16.70;68.20;;;;;;5020936;28;82082;-48
2021/09/20 10:22:10;;;;;;;;;;;16.70;68.20;;;;;;5020749;28;84035;-49
2021/09/20 10:24:36;;;;;;;;;;;16.70;68.70;;;;;;5019943;28;83152;-48
2021/09/20 10:27:01;;;;;;;;;;;16.70;68.30;;;;;;5021502;28;82162;-48
2021/09/20 10:29:27;;;;;;;;;;;16.70;68.30;;;;;;5020746;28;84066;-47
2021/09/20 10:31:53;;;;;;;;;;;16.70;68.60;;;;;;5020506;28;82471;-48
2021/09/20 10:34:22;;;;;;;;;;;16.80;68.40;;;;;;5019736;28;82156;-47
2021/09/20 10:36:50;;;;;;;;;;;16.80;68.70;;;;;;5022540;28;84068;-48
2021/09/20 10:39:15;;;;;;;;;;;16.70;68.60;;;;;;5023101;28;83759;-48
2021/09/20 10:41:41;;;;;;;;;;;16.80;68.80;;;;;;5021280;28;82188;-48
2021/09/20 10:44:08;;;;;;;;;;;16.80;68.60;;;;;;5021158;28;82703;-48
2021/09/20 10:46:34;;;;;;;;;;;16.80;68.60;;;;;;5020605;28;82077;-49
2021/09/20 10:49:02;;;;;;;;;;;16.80;68.70;;;;;;5020878;28;82438;-48
2021/09/20 10:51:30;;;;;;;;;;;16.80;68.50;;;;;;5020074;28;84565;-48
2021/09/20 10:54:14;;;;;;;;;;;16.80;69.00;;;;;;5027303;28;82108;-47
2021/09/20 10:56:40;;;;;;;;;;;16.80;68.90;;;;;;5023533;28;84370;-47
2021/09/20 10:59:07;;;;;;;;;;;16.80;68.90;;;;;;5027018;28;84590;-48
2021/09/20 11:01:34;;;;;;;;;;;16.90;69.00;;;;;;5026307;28;82195;-48
2021/09/20 11:04:01;;;;;;;;;;;16.90;69.10;;;;;;5022242;28;85148;-51
2021/09/20 11:06:32;;;;;;;;;;;16.90;69.20;;;;;;5025782;28;82139;-49
2021/09/20 11:08:58;;;;;;;;;;;16.90;69.40;;;;;;5023789;28;83041;-50
2021/09/20 11:11:42;;;;;;;;;;;16.90;69.60;;;;;;5024339;28;84456;-48
2021/09/20 11:14:13;;;;;;;;;;;16.90;69.60;;;;;;5024910;28;83003;-47
2021/09/20 11:16:49;;;;;;;;;;;16.90;69.80;;;;;;5025127;28;83683;-47
2021/09/20 11:19:24;;;;;;;;;;;16.90;69.50;;;;;;5022328;28;84886;-48
2021/09/20 11:22:14;;;;;;;;;;;17.00;70.00;;;;;;5023322;28;81350;-47
2021/09/20 11:24:39;;;;;;;;;;;16.90;69.90;;;;;;5025687;28;82803;-51
2021/09/20 11:27:06;;;;;;;;;;;17.00;69.50;;;;;;5024446;28;82093;-48
2021/09/20 11:29:31;;;;;;;;;;;17.00;70.40;;;;;;5023419;28;83074;-49
2021/09/20 11:32:02;;;;;;;;;;;17.00;69.90;;;;;;5024228;28;84071;-53
2021/09/20 11:34:28;;;;;;;;;;;17.00;70.10;;;;;;5024739;28;82175;-49
2021/09/20 11:36:54;;;;;;;;;;;17.00;70.80;;;;;;5025283;28;83805;-48
2021/09/20 11:39:20;;;;;;;;;;;17.00;70.20;;;;;;5024870;28;84045;-49
2021/09/20 11:41:47;;;;;;;;;;;17.00;70.50;;;;;;5025383;28;82091;-48
2021/09/20 11:44:15;;;;;;;;;;;17.00;70.30;;;;;;5025291;28;83701;-47
2021/09/20 11:46:40;;;;;;;;;;;17.00;70.50;;;;;;5026092;28;81393;-48
2021/09/20 11:49:08;;;;;;;;;;;17.10;70.60;;;;;;5025992;28;82224;-50
2021/09/20 11:51:34;;;;;;;;;;;17.10;70.30;;;;;;5023955;28;84531;-47
2021/09/20 11:53:59;;;;;;;;;;;17.10;70.70;;;;;;5023656;28;83046;-47
2021/09/20 11:56:26;;;;;;;;;;;17.10;70.80;;;;;;5025348;28;84717;-50
2021/09/20 11:58:53;;;;;;;;;;;17.10;70.50;;;;;;5025224;28;83454;-48
2021/09/20 12:01:26;;;;;;;;;;;17.10;70.70;;;;;;5024728;28;82205;-47
2021/09/20 12:03:55;;;;;;;;;;;17.10;70.80;;;;;;5022004;28;84014;-48
2021/09/20 12:06:28;;;;;;;;;;;17.10;70.80;;;;;;5027636;28;84360;-48
2021/09/20 12:08:55;;;;;;;;;;;17.20;71.20;;;;;;5022685;28;82136;-49
2021/09/20 12:11:22;;;;;;;;;;;17.20;71.10;;;;;;5021893;28;81797;-48
2021/09/20 12:13:48;;;;;;;;;;;17.10;70.90;;;;;;5023165;28;82328;-48
2021/09/20 12:16:13;;;;;;;;;;;17.20;71.20;;;;;;5020479;28;82717;-48
2021/09/20 12:18:39;;;;;;;;;;;17.20;71.20;;;;;;5022027;28;85202;-48
2021/09/20 12:21:09;;;;;;;;;;;17.20;71.20;;;;;;5023901;28;82115;-48
2021/09/20 12:23:52;;;;;;;;;;;17.20;70.80;;;;;;5024980;28;82630;-47
2021/09/20 12:26:19;;;;;;;;;;;17.20;71.20;;;;;;5022793;28;84437;-49
2021/09/20 12:28:44;;;;;;;;;;;17.20;71.40;;;;;;5024138;28;84039;-50
2021/09/20 12:31:15;;;;;;;;;;;17.20;71.40;;;;;;5022262;28;82791;-51
2021/09/20 12:33:58;;;;;;;;;;;17.20;71.60;;;;;;5023226;28;82147;-52
2021/09/20 12:36:27;;;;;;;;;;;17.30;71.40;;;;;;5022115;28;82398;-49
2021/09/20 12:39:24;;;;;;;;;;;17.30;71.70;;;;;;5023413;28;84641;-52
2021/09/20 12:42:16;;;;;;;;;;;17.20;71.40;;;;;;5017829;28;82298;-49
2021/09/20 12:44:47;;;;;;;;;;;17.30;71.20;;;;;;5020646;28;84191;-50
2021/09/20 12:47:19;;;;;;;;;;;17.30;71.20;;;;;;5020965;28;84619;-48
2021/09/20 12:49:59;;;;;;;;;;;17.30;71.40;;;;;;5022230;28;82093;-49
2021/09/20 12:52:26;;;;;;;;;;;17.30;71.30;;;;;;5026782;28;83644;-47
2021/09/20 12:54:52;;;;;;;;;;;17.30;71.40;;;;;;5023508;28;82139;-49
2021/09/20 12:57:19;;;;;;;;;;;17.40;71.40;;;;;;5023009;28;82743;-49
2021/09/20 12:59:45;;;;;;;;;;;17.40;71.70;;;;;;5021988;28;82084;-48
2021/09/20 13:02:12;;;;;;;;;;;17.40;71.80;;;;;;5023364;28;81346;-48
2021/09/20 13:04:38;;;;;;;;;;;17.30;71.50;;;;;;5021505;28;82085;-48
2021/09/20 13:07:04;;;;;;;;;;;17.30;71.40;;;;;;5020293;28;84538;-48
2021/09/20 13:09:30;;;;;;;;;;;17.30;72.00;;;;;;5020318;28;83984;-48
2021/09/20 13:12:03;;;;;;;;;;;17.40;71.30;;;;;;5021230;28;83818;-48
2021/09/20 13:14:30;;;;;;;;;;;17.40;71.70;;;;;;5026123;28;84466;-47
2021/09/20 13:17:04;;;;;;;;;;;17.40;71.50;;;;;;5023149;28;84256;-48
2021/09/20 13:19:29;;;;;;;;;;;17.40;71.70;;;;;;5020679;28;83803;-51
2021/09/20 13:22:02;;;;;;;;;;;17.40;71.50;;;;;;5020474;28;82129;-48
2021/09/20 13:24:29;;;;;;;;;;;17.50;71.40;;;;;;5024697;28;83532;-47
2021/09/20 13:26:55;;;;;;;;;;;17.40;71.80;;;;;;5024105;28;82388;-47
2021/09/20 13:29:21;;;;;;;;;;;17.50;71.90;;;;;;5023668;28;82148;-49
2021/09/20 13:31:47;;;;;;;;;;;17.50;72.10;;;;;;5023942;28;82145;-48
2021/09/20 13:34:12;;;;;;;;;;;17.50;71.30;;;;;;5023134;28;83987;-48
2021/09/20 13:36:38;;;;;;;;;;;17.50;72.40;;;;;;5026995;28;82130;-48
2021/09/20 13:39:03;;;;;;;;;;;17.60;72.00;;;;;;5020845;28;84756;-47
2021/09/20 13:41:29;;;;;;;;;;;17.60;71.60;;;;;;5020828;28;82119;-47
2021/09/20 13:43:54;;;;;;;;;;;17.60;71.30;;;;;;5021954;28;82121;-48
2021/09/20 13:46:23;;;;;;;;;;;17.60;71.80;;;;;;5021714;28;84725;-47
2021/09/20 13:48:49;;;;;;;;;;;17.70;71.60;;;;;;5023022;28;82995;-49
2021/09/20 13:51:16;;;;;;;;;;;17.70;71.90;;;;;;5023137;28;82437;-50
2021/09/20 13:53:42;;;;;;;;;;;17.70;71.70;;;;;;5021271;28;82409;-51
2021/09/20 13:56:07;;;;;;;;;;;17.70;71.40;;;;;;5022599;28;82198;-50
2021/09/20 13:58:33;;;;;;;;;;;17.70;71.80;;;;;;5020018;28;83018;-49
2021/09/20 14:00:58;;;;;;;;;;;17.80;71.50;;;;;;5020262;28;82103;-48
2021/09/20 14:03:24;;;;;;;;;;;17.80;71.90;;;;;;5020461;28;83669;-50
2021/09/20 14:05:50;;;;;;;;;;;17.80;71.60;;;;;;5021343;28;84372;-47
2021/09/20 14:08:18;;;;;;;;;;;17.80;71.80;;;;;;5021549;28;82108;-52
2021/09/20 14:10:44;;;;;;;;;;;17.70;71.80;;;;;;5020238;28;83867;-47
2021/09/20 14:13:10;;;;;;;;;;;17.60;72.30;;;;;;5019993;28;83795;-50